createdAt,value
2022-07-30T00:02:19.402Z,99.90
2022-07-30T00:04:48.572Z,99.90
2022-07-30T00:07:16.970Z,99.90
2022-07-30T00:09:46.523Z,99.90
2022-07-30T00:12:15.089Z,99.90
2022-07-30T00:14:43.293Z,99.90
2022-07-30T00:17:11.780Z,99.90
2022-07-30T00:19:40.088Z,99.90
2022-07-30T00:22:08.437Z,99.90
2022-07-30T00:24:36.662Z,99.90
2022-07-30T00:27:07.644Z,99.90
2022-07-30T00:29:35.819Z,99.90
2022-07-30T00:32:13.046Z,99.90
2022-07-30T00:34:41.889Z,99.90
2022-07-30T00:37:10.134Z,99.90
2022-07-30T00:39:38.397Z,99.90
2022-07-30T00:42:08.010Z,99.90
2022-07-30T00:44:36.248Z,99.90
2022-07-30T00:47:09.446Z,99.90
2022-07-30T00:49:41.380Z,99.90
2022-07-30T00:52:12.649Z,99.90
2022-07-30T00:54:42.127Z,99.90
2022-07-30T00:57:11.944Z,99.90
2022-07-30T00:59:40.251Z,99.90
2022-07-30T01:02:08.590Z,99.90
2022-07-30T01:04:36.739Z,99.90
2022-07-30T01:07:05.836Z,99.90
2022-07-30T01:09:34.639Z,99.90
2022-07-30T01:12:03.769Z,99.90
2022-07-30T01:14:33.484Z,99.90
2022-07-30T01:17:02.506Z,99.90
2022-07-30T01:19:52.245Z,99.90
2022-07-30T01:22:30.600Z,99.90
2022-07-30T01:25:06.784Z,99.90
2022-07-30T01:27:41.288Z,99.90
2022-07-30T01:30:11.401Z,99.90
2022-07-30T01:32:44.121Z,99.90
2022-07-30T01:35:14.722Z,99.90
2022-07-30T01:37:45.094Z,99.90
2022-07-30T01:40:15.778Z,99.90
2022-07-30T01:42:46.959Z,99.90
2022-07-30T01:45:16.801Z,99.90
2022-07-30T01:47:45.560Z,99.90
2022-07-30T01:50:15.285Z,99.90
2022-07-30T01:52:46.717Z,99.90
2022-07-30T01:55:21.426Z,99.90
2022-07-30T01:57:52.163Z,99.90
2022-07-30T02:00:24.474Z,99.90
2022-07-30T02:02:52.814Z,99.90
2022-07-30T02:05:21.546Z,99.90
2022-07-30T02:07:55.807Z,99.90
2022-07-30T02:10:30.269Z,99.90
2022-07-30T02:13:06.508Z,99.90
2022-07-30T02:15:39.795Z,99.90
2022-07-30T02:18:14.537Z,99.90
2022-07-30T02:20:49.394Z,99.90
2022-07-30T02:23:19.422Z,99.90
2022-07-30T02:25:51.141Z,99.90
2022-07-30T02:28:26.131Z,99.90
2022-07-30T02:31:02.040Z,99.90
2022-07-30T02:33:49.437Z,99.90
2022-07-30T02:36:20.909Z,99.90
2022-07-30T02:38:51.672Z,99.90
2022-07-30T02:41:23.197Z,99.90
2022-07-30T02:43:54.211Z,99.90
2022-07-30T02:46:25.366Z,99.90
2022-07-30T02:49:13.546Z,99.90
2022-07-30T02:51:43.651Z,99.90
2022-07-30T02:54:14.041Z,99.90
2022-07-30T02:56:43.552Z,99.90
2022-07-30T02:59:14.029Z,99.90
2022-07-30T03:01:43.723Z,99.90
2022-07-30T03:04:13.917Z,99.90
2022-07-30T03:06:44.219Z,99.90
2022-07-30T03:09:13.541Z,99.90
2022-07-30T03:11:45.910Z,99.90
2022-07-30T03:14:15.330Z,99.90
2022-07-30T03:16:48.876Z,99.90
2022-07-30T03:19:20.860Z,99.90
2022-07-30T03:21:50.763Z,99.90
2022-07-30T03:24:25.361Z,99.90
2022-07-30T03:26:56.694Z,99.90
2022-07-30T03:29:28.848Z,99.90
2022-07-30T03:31:57.388Z,99.90
2022-07-30T03:34:29.409Z,99.90
2022-07-30T03:36:59.145Z,99.90
2022-07-30T03:39:28.205Z,99.90
2022-07-30T03:41:57.154Z,99.90
2022-07-30T03:44:28.290Z,99.90
2022-07-30T03:46:59.159Z,99.90
2022-07-30T03:49:29.424Z,99.90
2022-07-30T03:51:58.329Z,99.90
2022-07-30T03:54:26.702Z,99.90
2022-07-30T03:57:19.390Z,99.90
2022-07-30T03:59:52.127Z,99.90
2022-07-30T04:02:22.473Z,99.90
2022-07-30T04:05:14.213Z,99.90
2022-07-30T04:07:45.263Z,99.90
2022-07-30T04:10:16.151Z,99.90
2022-07-30T04:13:16.825Z,99.90
2022-07-30T04:16:40.169Z,99.90
2022-07-30T04:18:46.725Z,99.90
2022-07-30T04:21:18.859Z,99.90
2022-07-30T04:24:03.225Z,99.90
2022-07-30T04:26:36.493Z,99.90
2022-07-30T04:29:08.444Z,99.90
2022-07-30T04:31:40.823Z,99.90
2022-07-30T04:34:48.753Z,99.90
2022-07-30T04:37:25.428Z,99.90
2022-07-30T04:39:56.046Z,99.90
2022-07-30T04:42:24.857Z,99.90
2022-07-30T04:45:02.209Z,99.90
2022-07-30T04:47:37.450Z,99.90
2022-07-30T04:50:29.929Z,99.90
2022-07-30T04:52:59.912Z,99.90
2022-07-30T04:55:32.416Z,99.90
2022-07-30T04:58:02.592Z,99.90
2022-07-30T05:00:40.722Z,99.90
2022-07-30T05:03:15.458Z,99.90
2022-07-30T05:05:52.051Z,99.90
2022-07-30T05:08:24.641Z,99.90
2022-07-30T05:10:53.400Z,99.90
2022-07-30T05:13:22.421Z,99.90
2022-07-30T05:15:55.949Z,99.90
2022-07-30T05:18:27.312Z,99.90
2022-07-30T05:20:55.484Z,99.90
2022-07-30T05:23:28.095Z,99.90
2022-07-30T05:26:06.875Z,99.90
2022-07-30T05:28:40.285Z,99.90
2022-07-30T05:31:12.677Z,99.90
2022-07-30T05:33:43.490Z,99.90
2022-07-30T05:36:17.182Z,99.90
2022-07-30T05:38:45.674Z,99.90
2022-07-30T05:41:33.313Z,99.90
2022-07-30T05:44:27.490Z,99.90
2022-07-30T05:46:56.536Z,99.90
2022-07-30T05:49:26.239Z,99.90
2022-07-30T05:51:59.390Z,99.90
2022-07-30T05:54:27.585Z,99.90
2022-07-30T05:57:14.911Z,99.90
2022-07-30T05:59:43.068Z,99.90
2022-07-30T06:02:13.900Z,99.90
2022-07-30T06:04:55.539Z,99.90
2022-07-30T06:07:24.878Z,99.90
2022-07-30T06:09:59.948Z,99.90
2022-07-30T06:12:29.224Z,99.90
2022-07-30T06:14:58.201Z,98.20
2022-07-30T06:17:31.139Z,94.80
2022-07-30T06:20:22.018Z,93.00
2022-07-30T06:23:10.536Z,85.20
2022-07-30T06:25:57.245Z,89.50
2022-07-30T06:28:37.700Z,87.20
2022-07-30T06:31:14.872Z,84.40
2022-07-30T06:33:43.459Z,77.70
2022-07-30T06:36:14.657Z,69.30
2022-07-30T06:39:09.098Z,63.20
2022-07-30T06:41:57.263Z,61.20
2022-07-30T06:44:29.998Z,60.80
2022-07-30T06:47:35.104Z,52.30
2022-07-30T06:50:04.124Z,49.60
2022-07-30T06:52:34.641Z,49.20
2022-07-30T06:55:03.098Z,41.00
2022-07-30T06:57:42.560Z,33.40
2022-07-30T07:00:27.452Z,31.30
2022-07-30T07:02:57.347Z,29.10
2022-07-30T07:05:34.468Z,27.80
2022-07-30T07:08:04.264Z,23.50
2022-07-30T07:10:36.859Z,23.10
2022-07-30T07:13:25.646Z,19.70
2022-07-30T07:15:54.066Z,12.30
2022-07-30T07:18:24.426Z,24.90
2022-07-30T07:21:00.719Z,13.50
2022-07-30T07:23:40.541Z,13.00
2022-07-30T07:26:19.028Z,12.60
2022-07-30T07:28:47.659Z,7.90
2022-07-30T07:32:06.420Z,1.90
2022-07-30T07:34:04.541Z,5.60
2022-07-30T07:36:32.656Z,6.80
2022-07-30T07:39:02.440Z,1.00
2022-07-30T07:41:30.901Z,99.90
2022-07-30T07:44:18.722Z,99.90
2022-07-30T07:46:47.161Z,1.00
2022-07-30T07:49:15.484Z,1.00
2022-07-30T07:51:48.774Z,1.00
2022-07-30T07:54:22.971Z,1.00
2022-07-30T07:56:55.967Z,1.00
2022-07-30T07:59:36.270Z,1.00
2022-07-30T08:02:12.046Z,1.00
2022-07-30T08:04:52.898Z,1.00
2022-07-30T08:07:33.234Z,1.00
2022-07-30T08:10:21.127Z,1.00
2022-07-30T08:13:48.439Z,1.00
2022-07-30T08:16:22.385Z,1.00
2022-07-30T08:19:09.052Z,1.00
2022-07-30T08:21:43.121Z,1.00
2022-07-30T08:24:11.553Z,1.00
2022-07-30T08:26:41.250Z,1.00
2022-07-30T08:29:14.151Z,1.00
2022-07-30T08:31:45.480Z,1.00
2022-07-30T08:34:14.380Z,1.00
2022-07-30T08:36:42.921Z,1.00
2022-07-30T08:39:11.182Z,1.00
2022-07-30T08:41:43.004Z,1.00
2022-07-30T08:44:12.937Z,1.00
2022-07-30T08:46:47.148Z,1.00
2022-07-30T08:49:51.298Z,1.00
2022-07-30T08:52:24.594Z,1.00
2022-07-30T08:55:03.236Z,1.00
2022-07-30T08:57:34.696Z,1.00
2022-07-30T09:00:07.772Z,1.00
2022-07-30T09:02:36.517Z,1.00
2022-07-30T09:05:06.775Z,1.00
2022-07-30T09:07:35.476Z,1.00
2022-07-30T09:10:05.396Z,1.00
2022-07-30T09:12:41.800Z,1.00
2022-07-30T09:15:13.159Z,1.00
2022-07-30T09:17:53.994Z,1.00
2022-07-30T09:20:25.662Z,1.00
2022-07-30T09:22:56.257Z,1.00
2022-07-30T09:26:02.928Z,1.00
2022-07-30T09:28:51.376Z,1.00
2022-07-30T09:31:23.677Z,1.00
2022-07-30T09:34:25.821Z,1.00
2022-07-30T09:37:17.805Z,1.00
2022-07-30T09:40:13.556Z,1.00
2022-07-30T09:43:07.216Z,1.00
2022-07-30T09:45:56.889Z,1.00
2022-07-30T09:48:29.152Z,1.00
2022-07-30T09:50:58.014Z,1.00
2022-07-30T09:53:26.481Z,1.00
2022-07-30T09:55:54.810Z,1.00
2022-07-30T09:58:27.472Z,1.00
2022-07-30T10:01:00.707Z,1.00
2022-07-30T10:03:48.449Z,1.00
2022-07-30T10:06:37.768Z,1.00
2022-07-30T10:09:27.226Z,1.00
2022-07-30T10:11:56.840Z,1.00
2022-07-30T10:14:30.801Z,1.00
2022-07-30T10:17:03.380Z,1.00
2022-07-30T10:19:40.455Z,1.00
2022-07-30T10:22:17.018Z,1.00
2022-07-30T10:25:22.897Z,1.00
2022-07-30T10:28:10.815Z,1.00
2022-07-30T10:30:39.413Z,1.00
2022-07-30T10:33:11.277Z,1.00
2022-07-30T10:35:58.919Z,1.00
2022-07-30T10:38:33.110Z,1.00
2022-07-30T10:41:06.827Z,1.00
2022-07-30T10:43:54.026Z,1.00
2022-07-30T10:46:34.995Z,1.00
2022-07-30T10:49:12.616Z,1.00
2022-07-30T10:51:49.093Z,1.00
2022-07-30T10:54:40.112Z,1.00
2022-07-30T10:57:15.205Z,1.00
2022-07-30T11:00:12.125Z,1.00
2022-07-30T11:03:01.939Z,99.90
2022-07-30T11:05:44.988Z,99.90
2022-07-30T11:08:36.440Z,99.90
2022-07-30T11:11:19.334Z,99.90
2022-07-30T11:13:54.225Z,99.90
2022-07-30T11:16:24.888Z,99.90
2022-07-30T11:22:27.323Z,99.90
2022-07-30T11:24:56.522Z,99.90
2022-07-30T11:27:41.516Z,99.90
2022-07-30T11:30:35.977Z,99.90
2022-07-30T11:33:32.089Z,99.90
2022-07-30T11:36:11.734Z,99.90
2022-07-30T11:38:58.988Z,99.90
2022-07-30T11:41:33.510Z,99.90
2022-07-30T11:44:30.505Z,99.90
2022-07-30T11:46:59.878Z,99.90
2022-07-30T11:49:36.429Z,99.90
2022-07-30T11:52:05.209Z,99.90
2022-07-30T11:54:34.880Z,99.90
2022-07-30T11:57:04.821Z,99.90
2022-07-30T11:59:33.116Z,99.90
2022-07-30T12:02:02.119Z,99.90
2022-07-30T12:04:31.270Z,99.90
2022-07-30T12:06:59.814Z,99.90
2022-07-30T12:09:29.447Z,99.90
2022-07-30T12:11:59.235Z,99.90
2022-07-30T12:14:38.703Z,99.90
2022-07-30T12:17:06.863Z,99.90
2022-07-30T12:19:48.814Z,99.90
2022-07-30T12:22:17.644Z,99.90
2022-07-30T12:24:45.990Z,99.90
2022-07-30T12:27:15.519Z,99.90
2022-07-30T12:29:43.802Z,99.90
2022-07-30T12:32:12.710Z,99.90
2022-07-30T12:34:54.591Z,99.90
2022-07-30T12:37:22.853Z,99.90
2022-07-30T12:40:05.204Z,99.90
2022-07-30T12:42:34.863Z,99.90
2022-07-30T12:45:03.092Z,99.90
2022-07-30T12:47:34.765Z,86.70
2022-07-30T12:50:06.296Z,59.20
2022-07-30T12:52:37.675Z,56.10
2022-07-30T12:55:08.731Z,54.40
2022-07-30T12:58:00.746Z,50.00
2022-07-30T13:00:35.981Z,37.80
2022-07-30T13:03:20.445Z,39.20
2022-07-30T13:05:50.748Z,34.40
2022-07-30T13:08:19.155Z,15.40
2022-07-30T13:10:59.739Z,11.30
2022-07-30T13:13:30.942Z,14.50
2022-07-30T13:16:01.214Z,7.50
2022-07-30T13:18:30.089Z,1.00
2022-07-30T13:20:58.496Z,1.00
2022-07-30T13:23:27.518Z,1.00
2022-07-30T13:25:56.079Z,1.00
2022-07-30T13:28:24.949Z,1.00
2022-07-30T13:30:54.624Z,1.00
2022-07-30T13:33:22.825Z,1.00
2022-07-30T13:35:51.074Z,1.00
2022-07-30T13:38:19.295Z,1.00
2022-07-30T13:40:48.313Z,1.00
2022-07-30T13:43:16.534Z,1.00
2022-07-30T13:45:44.711Z,1.00
2022-07-30T13:48:14.500Z,1.00
2022-07-30T13:50:43.337Z,1.00
2022-07-30T13:53:12.730Z,1.00
2022-07-30T13:55:42.501Z,1.00
2022-07-30T13:58:11.282Z,1.00
2022-07-30T14:00:40.395Z,1.00
2022-07-30T14:03:11.030Z,1.00
2022-07-30T14:05:41.984Z,1.00
2022-07-30T14:08:11.821Z,1.00
2022-07-30T14:10:40.833Z,1.00
2022-07-30T14:13:14.388Z,1.00
2022-07-30T14:15:49.297Z,1.00
2022-07-30T14:18:17.782Z,1.00
2022-07-30T14:20:48.866Z,1.00
2022-07-30T14:23:17.453Z,1.00
2022-07-30T14:25:45.791Z,1.00
2022-07-30T14:28:14.551Z,1.00
2022-07-30T14:30:42.966Z,1.00
2022-07-30T14:33:11.292Z,1.00
2022-07-30T14:35:39.574Z,1.00
2022-07-30T14:38:09.259Z,1.00
2022-07-30T14:40:37.510Z,1.00
2022-07-30T14:43:06.547Z,1.00
2022-07-30T14:45:36.455Z,1.00
2022-07-30T14:48:04.961Z,1.00
2022-07-30T14:50:39.330Z,1.00
2022-07-30T14:53:21.832Z,1.00
2022-07-30T14:55:50.843Z,1.00
2022-07-30T14:58:19.134Z,1.00
2022-07-30T15:00:48.623Z,1.00
2022-07-30T15:03:17.622Z,1.00
2022-07-30T15:05:51.809Z,1.00
2022-07-30T15:08:21.892Z,1.00
2022-07-30T15:10:50.972Z,1.00
2022-07-30T15:13:19.449Z,1.00
2022-07-30T15:15:48.062Z,1.00
2022-07-30T15:18:16.264Z,1.00
2022-07-30T15:20:44.533Z,1.00
2022-07-30T15:23:13.623Z,1.00
2022-07-30T15:25:44.060Z,1.00
2022-07-30T15:28:12.210Z,1.00
2022-07-30T15:30:41.328Z,1.00
2022-07-30T15:33:09.553Z,1.00
2022-07-30T15:35:38.533Z,1.00
2022-07-30T15:38:06.710Z,1.00
2022-07-30T15:40:34.963Z,1.00
2022-07-30T15:43:06.822Z,1.00
2022-07-30T15:45:55.740Z,1.00
2022-07-30T15:48:26.845Z,1.00
2022-07-30T15:51:01.788Z,1.00
2022-07-30T15:53:31.099Z,1.00
2022-07-30T15:55:59.736Z,1.00
2022-07-30T15:58:29.434Z,1.00
2022-07-30T16:00:57.916Z,1.00
2022-07-30T16:03:26.196Z,1.00
2022-07-30T16:05:54.426Z,1.00
2022-07-30T16:08:22.894Z,1.00
2022-07-30T16:10:51.901Z,1.00
2022-07-30T16:13:20.174Z,1.00
2022-07-30T16:15:49.812Z,1.00
2022-07-30T16:18:18.519Z,1.00
2022-07-30T16:20:46.617Z,1.00
2022-07-30T16:23:19.467Z,1.00
2022-07-30T16:25:49.483Z,1.00
2022-07-30T16:28:17.698Z,1.00
2022-07-30T16:30:50.755Z,1.00
2022-07-30T16:33:21.750Z,1.00
2022-07-30T16:35:50.699Z,1.00
2022-07-30T16:38:19.586Z,1.00
2022-07-30T16:40:47.788Z,1.00
2022-07-30T16:43:19.586Z,1.00
2022-07-30T16:45:48.533Z,1.00
2022-07-30T16:48:16.763Z,1.00
2022-07-30T16:50:46.722Z,1.00
2022-07-30T16:53:15.037Z,1.00
2022-07-30T16:55:43.971Z,1.00
2022-07-30T16:58:12.958Z,1.00
2022-07-30T17:00:41.579Z,1.00
2022-07-30T17:03:10.188Z,1.00
2022-07-30T17:05:45.185Z,1.00
2022-07-30T17:08:15.500Z,1.00
2022-07-30T17:10:46.631Z,1.00
2022-07-30T17:13:16.594Z,1.00
2022-07-30T17:15:46.740Z,1.00
2022-07-30T17:18:15.644Z,1.00
2022-07-30T17:20:43.916Z,1.00
2022-07-30T17:23:12.300Z,1.00
2022-07-30T17:25:42.082Z,1.00
2022-07-30T17:28:10.311Z,1.00
2022-07-30T17:30:38.790Z,1.00
2022-07-30T17:33:07.178Z,1.00
2022-07-30T17:35:35.488Z,1.00
2022-07-30T17:38:03.749Z,1.00
2022-07-30T17:40:32.621Z,1.00
2022-07-30T17:43:04.672Z,1.00
2022-07-30T17:45:34.263Z,1.00
2022-07-30T17:48:02.958Z,1.00
2022-07-30T17:50:34.487Z,1.00
2022-07-30T17:53:03.922Z,1.00
2022-07-30T17:55:34.818Z,1.00
2022-07-30T17:58:05.124Z,1.00
2022-07-30T18:00:34.697Z,1.00
2022-07-30T18:03:03.426Z,1.00
2022-07-30T18:05:31.707Z,1.00
2022-07-30T18:07:59.915Z,1.00
2022-07-30T18:10:28.216Z,1.00
2022-07-30T18:12:56.545Z,1.00
2022-07-30T18:15:27.879Z,1.00
2022-07-30T18:17:56.020Z,1.00
2022-07-30T18:20:24.377Z,1.00
2022-07-30T18:22:52.565Z,1.00
2022-07-30T18:25:23.251Z,1.00
2022-07-30T18:27:52.368Z,1.00
2022-07-30T18:30:20.738Z,1.00
2022-07-30T18:32:50.641Z,1.00
2022-07-30T18:35:19.059Z,1.00
2022-07-30T18:37:48.224Z,1.00
2022-07-30T18:40:23.787Z,1.00
2022-07-30T18:42:52.310Z,1.00
2022-07-30T18:45:20.824Z,1.00
2022-07-30T18:47:50.564Z,1.00
2022-07-30T18:50:19.210Z,1.00
2022-07-30T18:52:47.533Z,1.00
2022-07-30T18:55:17.357Z,1.00
2022-07-30T18:57:45.650Z,1.00
2022-07-30T19:00:31.112Z,1.00
2022-07-30T19:03:04.823Z,1.00
2022-07-30T19:05:33.227Z,1.00
2022-07-30T19:08:01.571Z,1.00
2022-07-30T19:10:29.845Z,1.00
2022-07-30T19:12:58.436Z,1.00
2022-07-30T19:15:26.953Z,1.00
2022-07-30T19:17:55.182Z,1.00
2022-07-30T19:20:26.445Z,1.00
2022-07-30T19:23:01.761Z,1.00
2022-07-30T19:25:30.409Z,1.00
2022-07-30T19:27:58.579Z,1.00
2022-07-30T19:30:26.827Z,1.00
2022-07-30T19:32:55.948Z,1.00
2022-07-30T19:35:26.001Z,1.00
2022-07-30T19:37:54.409Z,1.00
2022-07-30T19:40:22.720Z,1.00
2022-07-30T19:42:55.751Z,1.00
2022-07-30T19:45:25.178Z,1.00
2022-07-30T19:48:13.398Z,1.00
2022-07-30T19:50:43.247Z,1.00
2022-07-30T19:53:11.945Z,1.00
2022-07-30T19:55:40.109Z,1.00
2022-07-30T19:58:17.191Z,1.00
2022-07-30T20:00:49.201Z,1.00
2022-07-30T20:03:25.617Z,1.00
2022-07-30T20:05:59.450Z,1.00
2022-07-30T20:08:28.373Z,1.00
2022-07-30T20:10:59.038Z,1.00
2022-07-30T20:13:44.794Z,1.00
2022-07-30T20:16:14.789Z,1.00
2022-07-30T20:18:44.421Z,1.00
2022-07-30T20:21:16.316Z,1.00
2022-07-30T20:23:45.555Z,1.00
2022-07-30T20:26:16.099Z,1.00
2022-07-30T20:28:52.563Z,1.00
2022-07-30T20:31:21.398Z,1.00
2022-07-30T20:33:50.858Z,1.00
2022-07-30T20:36:22.234Z,1.00
2022-07-30T20:38:51.187Z,1.00
2022-07-30T20:41:19.634Z,1.00
2022-07-30T20:43:51.866Z,29.20
2022-07-30T20:46:23.335Z,23.70
2022-07-30T20:48:52.763Z,13.30
2022-07-30T20:51:32.894Z,14.40
2022-07-30T20:54:02.439Z,56.50
2022-07-30T20:56:31.025Z,28.80
2022-07-30T20:58:59.368Z,30.60
2022-07-30T21:01:28.380Z,49.30
2022-07-30T21:03:59.151Z,34.20
2022-07-30T21:06:28.825Z,23.20
2022-07-30T21:08:57.280Z,36.80
2022-07-30T21:11:26.523Z,83.10
2022-07-30T21:13:55.137Z,88.50
2022-07-30T21:16:25.301Z,84.90
2022-07-30T21:18:53.629Z,99.90
2022-07-30T21:21:30.535Z,99.90
2022-07-30T21:24:15.367Z,99.90
2022-07-30T21:26:46.110Z,99.90
2022-07-30T21:29:14.398Z,99.90
2022-07-30T21:32:00.696Z,99.90
2022-07-30T21:34:40.034Z,99.90
2022-07-30T21:37:08.702Z,99.90
2022-07-30T21:39:39.771Z,99.90
2022-07-30T21:42:09.147Z,99.90
2022-07-30T21:44:37.747Z,99.90
2022-07-30T21:47:10.009Z,99.90
2022-07-30T21:49:39.809Z,99.90
2022-07-30T21:52:09.090Z,99.90
2022-07-30T21:54:48.186Z,99.90
2022-07-30T21:57:23.302Z,99.90
2022-07-30T21:59:55.409Z,99.90
2022-07-30T22:02:24.243Z,99.90
2022-07-30T22:04:53.508Z,99.90
2022-07-30T22:07:22.895Z,99.90
2022-07-30T22:09:52.799Z,99.90
2022-07-30T22:12:21.486Z,99.90
2022-07-30T22:14:54.037Z,99.90
2022-07-30T22:17:23.701Z,99.90
2022-07-30T22:20:08.857Z,99.90
2022-07-30T22:22:40.289Z,99.90
2022-07-30T22:25:11.830Z,99.90
2022-07-30T22:27:56.709Z,99.90
2022-07-30T22:30:26.972Z,99.90
2022-07-30T22:32:56.322Z,99.90
2022-07-30T22:35:32.493Z,99.90
2022-07-30T22:38:03.000Z,99.90
2022-07-30T22:40:33.007Z,99.90
2022-07-30T22:43:07.778Z,99.90
2022-07-30T22:45:48.292Z,99.90
2022-07-30T22:51:06.655Z,99.90
2022-07-30T22:54:10.511Z,99.90
2022-07-30T22:56:29.764Z,99.90
2022-07-30T22:59:00.773Z,99.90
2022-07-30T23:01:28.963Z,99.90
2022-07-30T23:03:57.176Z,99.90
2022-07-30T23:06:30.266Z,99.90
2022-07-30T23:08:58.566Z,99.90
2022-07-30T23:11:26.982Z,99.90
2022-07-30T23:12:34.170Z,99.90
2022-07-30T23:14:08.581Z,1.00
2022-07-30T23:16:37.087Z,1.00
2022-07-30T23:19:06.712Z,1.00
2022-07-30T23:21:35.809Z,1.00
2022-07-30T23:24:04.726Z,1.00
2022-07-30T23:26:33.167Z,1.00
2022-07-30T23:29:01.568Z,1.00
2022-07-30T23:31:31.155Z,1.00
2022-07-30T23:33:59.330Z,1.00
2022-07-30T23:36:27.523Z,1.00
2022-07-30T23:38:55.694Z,1.00
2022-07-30T23:41:29.687Z,1.00
2022-07-30T23:43:59.095Z,1.00
2022-07-30T23:46:27.268Z,1.00
2022-07-30T23:48:56.804Z,1.00
2022-07-30T23:51:25.040Z,1.00
2022-07-30T23:54:01.725Z,1.00
2022-07-30T23:56:30.282Z,1.00
2022-07-30T23:58:58.486Z,1.00
